Clydach, United Kingdom
Current Conditions -  °F | °C
As of 7:50 AM on Saturday 29 Nov 2014 (Local Time) from EGOP Reporting Station
Broken Clouds Broken Clouds  
Wind Chill: 50°   Ceiling: 1900
Heat Index: 50°   Visibility: 5mi
Dew Point: 46°   Wind: 5mph
Humidity: 87%   Direction: 70°ENE
Pressure: 29.77"   Gusts: NA
Location:  51.68°N, 3.9°W
Report Text: EGOP 290750Z AUTO 07004KT 8000 // BKN019/// 10/08 Q1008
Loading
Personal Weather Stations






























Interactive Weather Map New forecast layout! Learn more

10-Day Weather Forecast

Advertisements
Track Severe Weather on mobile